Terminal Aerodrome Forecast
Issued by NWS

Home | Current Version | Previous Version | Graphics & Text | Print | Product List | Glossary On
Versions: 1 2 3 4 5 6 7 8 9 10 11 12 13 14 15 16 17
000
FTUS43 KBIS 031100
TAFDIK
TAF
KDIK 031120Z 0312/0412 32022G30KT P6SM BKN090
     FM031800 31018G25KT P6SM BKN035
     FM040000 31011KT P6SM OVC050=

USA.gov is the U.S. government's official web portal to all federal, state and local government web resources and services.